Marina, Croatia
Current Conditions -  °F | °C
As of 2:30 PM on Thursday 23 Oct 2014 (Local Time) from LDSP Reporting Station
Few Clouds Few Clouds  
Wind Chill: 59°   Ceiling: Unl
Heat Index: 59°   Visibility: 6mi
Dew Point: 34°   Wind: 10mph
Humidity: 39%   Direction: 70°ENE
Pressure: 29.68"   Gusts: NA
Location:  43.51°N, 16.1°E
Report Text: LDSP 231330Z 07009KT 030V120 9999 FEW060 15/01 Q1005 NOSIG
Loading
Personal Weather Stations






























Interactive Weather Map
Tropical Storm Tracking
New forecast layout! Learn more

10-Day Weather Forecast

Advertisements
Track Severe Weather on mobile